Time;durP1;ratioP1;P1;durP2;ratioP2;P2;SDS_P1;SDS_P2;PMS_P1;PMS_P2;Temp;Humidity;BMP_temperature;BMP_pressure;BME280_temperature;BME280_humidity;BME280_pressure;Samples;Min_cycle;Max_cycle;Signal;HPM_P1;HPM_P2
2023/10/29 00:02:05;;;;;;;;;;;11.20;63.50;;;;;;4967488;28;114891;-86
2023/10/29 00:04:35;;;;;;;;;;;11.20;63.60;;;;;;4967589;28;115249;-83
2023/10/29 00:07:03;;;;;;;;;;;11.20;63.50;;;;;;4967267;28;114295;-84
2023/10/29 00:09:30;;;;;;;;;;;11.20;63.70;;;;;;4967066;28;114182;-85
2023/10/29 00:11:57;;;;;;;;;;;11.20;63.70;;;;;;4965515;28;116118;-85
2023/10/29 00:14:24;;;;;;;;;;;11.20;63.80;;;;;;4967065;28;114686;-86
2023/10/29 00:16:51;;;;;;;;;;;11.10;63.80;;;;;;4968138;28;114406;-86
2023/10/29 00:19:18;;;;;;;;;;;11.10;63.90;;;;;;4968164;28;114404;-85
2023/10/29 00:21:45;;;;;;;;;;;11.10;64.00;;;;;;4982017;28;115915;-86
2023/10/29 00:24:12;;;;;;;;;;;11.10;64.10;;;;;;4967101;28;114706;-86
2023/10/29 00:26:39;;;;;;;;;;;11.10;64.00;;;;;;4967950;28;114178;-85
2023/10/29 00:29:07;;;;;;;;;;;11.10;64.00;;;;;;4983708;28;114503;-86
2023/10/29 00:31:35;;;;;;;;;;;11.10;64.00;;;;;;4965737;28;115431;-86
2023/10/29 00:34:03;;;;;;;;;;;11.20;64.00;;;;;;4965792;28;114706;-85
2023/10/29 00:36:31;;;;;;;;;;;11.20;64.00;;;;;;4949634;28;114525;-85
2023/10/29 00:38:58;;;;;;;;;;;11.20;64.00;;;;;;4966577;28;114107;-85
2023/10/29 00:41:26;;;;;;;;;;;11.20;64.00;;;;;;4966615;28;115740;-86
2023/10/29 00:43:53;;;;;;;;;;;11.20;64.00;;;;;;4965568;28;115760;-86
2023/10/29 00:46:20;;;;;;;;;;;11.20;64.10;;;;;;4967737;28;114398;-86
2023/10/29 00:48:48;;;;;;;;;;;11.20;64.00;;;;;;4967665;28;114324;-86
2023/10/29 00:51:15;;;;;;;;;;;11.20;64.00;;;;;;4965422;28;115255;-86
2023/10/29 00:53:42;;;;;;;;;;;11.20;64.00;;;;;;4965837;28;114800;-86
2023/10/29 00:56:10;;;;;;;;;;;11.20;63.90;;;;;;4966334;28;114345;-86
2023/10/29 00:58:37;;;;;;;;;;;11.20;64.00;;;;;;4966397;28;114395;-85
2023/10/29 01:01:04;;;;;;;;;;;11.20;64.00;;;;;;4965246;28;114406;-85
2023/10/29 01:03:31;;;;;;;;;;;11.20;64.00;;;;;;4966719;28;115088;-86
2023/10/29 01:05:58;;;;;;;;;;;11.20;64.00;;;;;;4969754;28;114200;-85
2023/10/29 01:08:26;;;;;;;;;;;11.20;64.00;;;;;;4987570;28;114148;-86
2023/10/29 01:10:53;;;;;;;;;;;11.20;63.90;;;;;;4966963;28;116709;-85
2023/10/29 01:13:20;;;;;;;;;;;11.20;63.90;;;;;;4966777;28;114898;-85
2023/10/29 01:15:47;;;;;;;;;;;11.20;63.80;;;;;;4967920;28;114408;-85
2023/10/29 01:18:14;;;;;;;;;;;11.20;63.70;;;;;;4966663;28;114405;-85
2023/10/29 01:20:41;;;;;;;;;;;11.20;63.70;;;;;;4948645;28;114820;-85
2023/10/29 01:23:08;;;;;;;;;;;11.20;63.70;;;;;;4949031;28;114930;-85
2023/10/29 01:25:35;;;;;;;;;;;11.30;63.60;;;;;;4965774;28;114365;-84
2023/10/29 01:28:04;;;;;;;;;;;11.30;63.60;;;;;;4967181;28;114288;-84
2023/10/29 01:30:32;;;;;;;;;;;11.30;63.40;;;;;;4966453;28;114960;-84
2023/10/29 01:32:59;;;;;;;;;;;11.20;63.40;;;;;;4967052;28;114489;-84
2023/10/29 01:35:27;;;;;;;;;;;11.20;63.20;;;;;;4999718;28;114225;-84
2023/10/29 01:37:54;;;;;;;;;;;11.20;63.40;;;;;;4967789;28;114315;-84
2023/10/29 01:40:21;;;;;;;;;;;11.20;63.40;;;;;;4982061;28;114815;-85
2023/10/29 01:42:49;;;;;;;;;;;11.20;63.40;;;;;;4965540;28;117350;-85
2023/10/29 01:45:17;;;;;;;;;;;11.20;63.40;;;;;;4966408;28;114371;-85
2023/10/29 01:47:44;;;;;;;;;;;11.20;63.20;;;;;;4966276;28;114135;-84
2023/10/29 01:50:11;;;;;;;;;;;11.20;63.10;;;;;;4967478;28;114841;-85
2023/10/29 01:52:38;;;;;;;;;;;11.20;63.20;;;;;;4969545;28;116261;-85
2023/10/29 01:55:06;;;;;;;;;;;11.20;62.80;;;;;;4969246;28;114207;-85
2023/10/29 01:57:36;;;;;;;;;;;11.20;62.90;;;;;;4970422;28;114188;-85
2023/10/29 02:00:08;;;;;;;;;;;11.20;63.10;;;;;;4951977;28;115017;-84
2023/10/29 02:02:38;;;;;;;;;;;11.20;62.70;;;;;;4968241;28;115275;-85
2023/10/29 02:05:05;;;;;;;;;;;11.20;62.90;;;;;;4969182;28;114212;-84
2023/10/29 02:07:33;;;;;;;;;;;11.20;62.70;;;;;;4970247;28;114250;-85
2023/10/29 02:10:01;;;;;;;;;;;11.20;62.70;;;;;;4951988;28;114833;-84
2023/10/29 02:12:31;;;;;;;;;;;11.30;62.50;;;;;;4967814;28;115792;-84
2023/10/29 02:14:58;;;;;;;;;;;11.20;62.70;;;;;;4969598;28;114317;-84
2023/10/29 02:17:27;;;;;;;;;;;11.20;62.50;;;;;;4936155;28;114171;-85
2023/10/29 02:19:55;;;;;;;;;;;11.10;62.60;;;;;;5000361;28;116215;-85
2023/10/29 02:22:23;;;;;;;;;;;11.10;62.70;;;;;;4967608;28;114812;-85
2023/10/29 02:24:50;;;;;;;;;;;11.10;62.60;;;;;;4969604;28;114180;-85
2023/10/29 02:27:17;;;;;;;;;;;11.00;62.70;;;;;;4969904;28;114345;-86
2023/10/29 02:29:45;;;;;;;;;;;11.00;62.70;;;;;;4968889;28;115518;-85
2023/10/29 02:32:12;;;;;;;;;;;11.10;62.70;;;;;;4968022;28;114584;-86
2023/10/29 02:34:39;;;;;;;;;;;11.10;62.70;;;;;;4968555;28;114230;-85
2023/10/29 02:37:06;;;;;;;;;;;11.10;62.80;;;;;;4968520;28;114363;-85
2023/10/29 02:39:33;;;;;;;;;;;11.10;62.60;;;;;;4970558;28;114881;-85
2023/10/29 02:42:00;;;;;;;;;;;11.10;62.40;;;;;;4970135;28;114820;-85
2023/10/29 02:44:28;;;;;;;;;;;11.10;62.40;;;;;;4968509;28;114300;-85
2023/10/29 02:46:56;;;;;;;;;;;11.10;62.60;;;;;;4982048;28;114227;-85
2023/10/29 02:49:23;;;;;;;;;;;11.10;62.50;;;;;;4957629;28;114965;-85
2023/10/29 02:51:50;;;;;;;;;;;11.10;62.30;;;;;;4953361;28;114088;-84
2023/10/29 02:54:17;;;;;;;;;;;11.10;62.30;;;;;;4982631;28;114397;-85
2023/10/29 02:56:44;;;;;;;;;;;11.00;62.30;;;;;;4951135;28;114460;-84
2023/10/29 02:59:11;;;;;;;;;;;11.00;62.30;;;;;;4980946;28;114860;-84
2023/10/29 03:01:38;;;;;;;;;;;11.00;62.40;;;;;;4979462;28;115154;-84
2023/10/29 03:04:06;;;;;;;;;;;10.90;62.50;;;;;;4949450;28;114323;-85
2023/10/29 03:06:35;;;;;;;;;;;11.00;62.60;;;;;;4950285;28;114408;-84
2023/10/29 03:09:03;;;;;;;;;;;10.90;62.80;;;;;;4947838;28;118299;-85
2023/10/29 03:11:31;;;;;;;;;;;10.80;62.80;;;;;;4980445;28;117436;-85
2023/10/29 03:13:59;;;;;;;;;;;10.90;63.00;;;;;;4949147;28;114237;-84
2023/10/29 03:16:27;;;;;;;;;;;10.80;63.10;;;;;;4950973;28;114466;-85
2023/10/29 03:18:54;;;;;;;;;;;10.90;63.10;;;;;;4981180;28;115460;-85
2023/10/29 03:21:21;;;;;;;;;;;10.80;63.20;;;;;;4949448;28;114889;-85
2023/10/29 03:23:49;;;;;;;;;;;10.80;63.40;;;;;;4950814;28;114117;-85
2023/10/29 03:26:17;;;;;;;;;;;10.90;63.40;;;;;;4966365;28;114374;-84
2023/10/29 03:28:44;;;;;;;;;;;10.80;63.40;;;;;;4949531;28;114964;-84
2023/10/29 03:31:14;;;;;;;;;;;10.80;63.50;;;;;;4981778;28;115309;-84
2023/10/29 03:33:41;;;;;;;;;;;10.80;63.50;;;;;;4965926;28;114279;-85
2023/10/29 03:36:08;;;;;;;;;;;10.90;63.50;;;;;;4982098;28;114181;-84
2023/10/29 03:38:36;;;;;;;;;;;10.80;63.50;;;;;;4949665;28;114816;-84
2023/10/29 03:41:03;;;;;;;;;;;10.90;63.50;;;;;;4948931;28;114295;-84
2023/10/29 03:43:30;;;;;;;;;;;10.90;63.70;;;;;;4950597;28;114247;-85
2023/10/29 03:45:59;;;;;;;;;;;10.80;63.60;;;;;;4950761;28;114383;-85
2023/10/29 03:48:27;;;;;;;;;;;10.80;63.70;;;;;;4980894;28;115570;-83
2023/10/29 03:50:54;;;;;;;;;;;10.80;63.80;;;;;;4981143;28;114590;-84
2023/10/29 03:53:21;;;;;;;;;;;10.80;63.90;;;;;;4964709;28;114452;-84
2023/10/29 03:55:48;;;;;;;;;;;10.80;63.90;;;;;;4950019;28;114150;-84
2023/10/29 03:58:16;;;;;;;;;;;10.80;64.20;;;;;;4949175;28;116160;-85
2023/10/29 04:00:49;;;;;;;;;;;10.70;64.10;;;;;;4949270;28;114555;-83
2023/10/29 04:03:16;;;;;;;;;;;10.70;64.30;;;;;;4949383;28;114270;-84
2023/10/29 04:05:43;;;;;;;;;;;10.70;64.10;;;;;;4949082;28;114306;-85
2023/10/29 04:08:10;;;;;;;;;;;10.70;64.50;;;;;;4979574;28;114812;-84
2023/10/29 04:10:37;;;;;;;;;;;10.70;64.30;;;;;;4949538;28;114701;-84
2023/10/29 04:13:04;;;;;;;;;;;10.70;64.50;;;;;;4980658;28;114820;-84
2023/10/29 04:15:31;;;;;;;;;;;10.70;64.50;;;;;;4964326;28;114428;-84
2023/10/29 04:17:58;;;;;;;;;;;10.70;64.60;;;;;;4948187;28;114940;-84
2023/10/29 04:20:27;;;;;;;;;;;10.70;64.70;;;;;;4948572;28;114625;-84
2023/10/29 04:22:54;;;;;;;;;;;10.70;64.70;;;;;;4948496;28;114212;-85
2023/10/29 04:25:21;;;;;;;;;;;10.70;64.60;;;;;;4964934;28;114307;-84
2023/10/29 04:27:48;;;;;;;;;;;10.70;64.60;;;;;;4980821;28;114281;-85
2023/10/29 04:30:16;;;;;;;;;;;10.70;64.70;;;;;;4949128;28;114580;-84
2023/10/29 04:32:43;;;;;;;;;;;10.70;64.70;;;;;;4989902;28;114019;-83
2023/10/29 04:35:10;;;;;;;;;;;10.80;65.00;;;;;;4964593;28;114048;-85
2023/10/29 04:37:38;;;;;;;;;;;10.70;64.90;;;;;;4965150;28;117914;-84
2023/10/29 04:40:05;;;;;;;;;;;10.70;65.00;;;;;;4949249;28;114534;-84
2023/10/29 04:42:33;;;;;;;;;;;10.70;65.10;;;;;;4948165;28;114369;-84
2023/10/29 04:45:00;;;;;;;;;;;10.70;65.10;;;;;;4948735;28;114111;-85
2023/10/29 04:47:27;;;;;;;;;;;10.70;65.20;;;;;;4947877;28;115242;-84
2023/10/29 04:49:54;;;;;;;;;;;10.70;65.40;;;;;;4947829;28;114681;-85
2023/10/29 04:52:21;;;;;;;;;;;10.60;65.30;;;;;;4948323;28;114513;-85
2023/10/29 04:54:48;;;;;;;;;;;10.70;65.40;;;;;;4948357;28;114378;-85
2023/10/29 04:57:20;;;;;;;;;;;10.70;65.80;;;;;;4947427;28;114976;-84
2023/10/29 04:59:48;;;;;;;;;;;10.60;65.80;;;;;;4947447;28;116498;-85
2023/10/29 05:02:18;;;;;;;;;;;10.60;65.50;;;;;;4979610;28;114437;-84
2023/10/29 05:04:45;;;;;;;;;;;10.60;65.70;;;;;;4947968;28;114511;-85
2023/10/29 05:07:12;;;;;;;;;;;10.60;65.80;;;;;;4960532;28;117315;-85
2023/10/29 05:09:39;;;;;;;;;;;10.60;65.90;;;;;;4978397;28;114572;-85
2023/10/29 05:12:07;;;;;;;;;;;10.50;65.90;;;;;;4947831;28;114423;-85
2023/10/29 05:14:34;;;;;;;;;;;10.60;65.90;;;;;;4995984;28;114442;-85
2023/10/29 05:17:01;;;;;;;;;;;10.60;65.80;;;;;;4962423;28;118668;-85
2023/10/29 05:19:28;;;;;;;;;;;10.70;65.90;;;;;;4946423;28;114602;-85
2023/10/29 05:21:55;;;;;;;;;;;10.60;65.80;;;;;;4947800;28;114118;-85
2023/10/29 05:24:23;;;;;;;;;;;10.70;66.00;;;;;;4963293;28;114015;-84
2023/10/29 05:26:50;;;;;;;;;;;10.70;65.90;;;;;;4946785;28;114987;-84
2023/10/29 05:29:18;;;;;;;;;;;10.70;65.80;;;;;;4979418;28;115156;-85
2023/10/29 05:31:45;;;;;;;;;;;10.70;66.10;;;;;;4948032;28;114212;-84
2023/10/29 05:34:14;;;;;;;;;;;10.70;66.00;;;;;;4980247;28;114400;-85
2023/10/29 05:36:42;;;;;;;;;;;10.70;66.10;;;;;;4947481;28;114914;-85
2023/10/29 05:39:09;;;;;;;;;;;10.70;66.30;;;;;;4978908;28;115813;-85
2023/10/29 05:41:36;;;;;;;;;;;10.70;66.40;;;;;;4962902;28;114430;-87
2023/10/29 05:44:04;;;;;;;;;;;10.70;66.20;;;;;;4979128;28;114295;-86
2023/10/29 05:46:32;;;;;;;;;;;10.70;66.40;;;;;;4946648;28;114840;-85
2023/10/29 05:48:59;;;;;;;;;;;10.70;66.20;;;;;;4961839;28;114719;-85
2023/10/29 05:51:26;;;;;;;;;;;10.70;66.30;;;;;;4978768;28;114233;-85
2023/10/29 05:53:53;;;;;;;;;;;10.70;66.30;;;;;;4947286;28;114143;-85
2023/10/29 05:56:20;;;;;;;;;;;10.70;66.20;;;;;;4947139;28;115002;-84
2023/10/29 05:58:50;;;;;;;;;;;10.70;66.20;;;;;;4946099;28;116320;-88
2023/10/29 06:01:19;;;;;;;;;;;10.80;66.40;;;;;;4950710;28;114168;-85
2023/10/29 06:03:47;;;;;;;;;;;10.80;66.30;;;;;;4963182;28;114518;-85
2023/10/29 06:06:14;;;;;;;;;;;10.80;66.40;;;;;;4977874;28;115077;-85
2023/10/29 06:08:41;;;;;;;;;;;10.80;66.40;;;;;;4946493;28;114932;-85
2023/10/29 06:11:08;;;;;;;;;;;10.90;66.40;;;;;;4947941;28;114180;-86
2023/10/29 06:13:35;;;;;;;;;;;11.00;66.30;;;;;;4962745;28;114531;-85
2023/10/29 06:16:06;;;;;;;;;;;11.20;66.20;;;;;;4950308;28;115594;-84
2023/10/29 06:18:33;;;;;;;;;;;11.30;66.10;;;;;;4952648;28;114875;-84
2023/10/29 06:21:02;;;;;;;;;;;11.50;65.90;;;;;;4946998;28;114454;-85
2023/10/29 06:23:29;;;;;;;;;;;11.60;65.60;;;;;;4979701;28;114690;-85
2023/10/29 06:25:56;;;;;;;;;;;11.70;65.40;;;;;;4962514;28;118476;-85
2023/10/29 06:28:23;;;;;;;;;;;11.90;65.20;;;;;;4978926;28;114813;-85
2023/10/29 06:30:50;;;;;;;;;;;12.00;65.00;;;;;;4961878;28;114232;-84
2023/10/29 06:33:18;;;;;;;;;;;12.10;64.70;;;;;;4995357;28;114264;-85
2023/10/29 06:35:45;;;;;;;;;;;12.20;64.80;;;;;;4947318;28;115606;-85
2023/10/29 06:38:14;;;;;;;;;;;12.30;64.70;;;;;;4950262;28;114794;-86
2023/10/29 06:40:41;;;;;;;;;;;12.50;64.40;;;;;;4951076;28;114105;-85
2023/10/29 06:43:09;;;;;;;;;;;12.60;64.10;;;;;;4949427;28;114247;-86
2023/10/29 06:45:37;;;;;;;;;;;12.60;63.70;;;;;;4996667;28;115254;-85
2023/10/29 06:48:04;;;;;;;;;;;12.70;63.60;;;;;;4965926;28;117186;-87
2023/10/29 06:50:32;;;;;;;;;;;12.70;63.50;;;;;;4982631;28;114457;-86
2023/10/29 06:52:59;;;;;;;;;;;12.90;63.30;;;;;;4965469;28;114433;-84
2023/10/29 06:55:26;;;;;;;;;;;13.00;63.00;;;;;;4950324;28;115283;-85
2023/10/29 06:57:53;;;;;;;;;;;13.10;62.70;;;;;;4950047;28;114606;-85
2023/10/29 07:00:20;;;;;;;;;;;13.10;62.40;;;;;;4950408;28;114255;-86
2023/10/29 07:02:47;;;;;;;;;;;13.20;62.60;;;;;;4951130;28;114273;-86
2023/10/29 07:05:14;;;;;;;;;;;13.20;62.30;;;;;;4997184;28;114821;-86
2023/10/29 07:07:42;;;;;;;;;;;13.30;62.00;;;;;;4997208;28;114851;-85
2023/10/29 07:10:09;;;;;;;;;;;13.30;61.90;;;;;;4964671;28;114268;-85
2023/10/29 07:12:36;;;;;;;;;;;13.50;62.00;;;;;;4950025;28;114117;-85
2023/10/29 07:15:09;;;;;;;;;;;13.50;61.90;;;;;;4980105;28;115260;-85
2023/10/29 07:17:36;;;;;;;;;;;13.60;61.10;;;;;;4948724;28;115201;-85
2023/10/29 07:20:04;;;;;;;;;;;13.70;61.40;;;;;;4981396;28;114342;-86
2023/10/29 07:22:31;;;;;;;;;;;13.80;60.70;;;;;;4964843;28;114336;-86
2023/10/29 07:24:58;;;;;;;;;;;13.80;61.00;;;;;;4980986;28;114860;-85
2023/10/29 07:27:25;;;;;;;;;;;13.80;60.20;;;;;;4948331;28;117753;-85
2023/10/29 07:29:53;;;;;;;;;;;13.70;60.10;;;;;;4981743;28;114482;-86
2023/10/29 07:32:21;;;;;;;;;;;13.60;60.30;;;;;;4998204;28;114440;-86
2023/10/29 07:34:48;;;;;;;;;;;13.70;60.30;;;;;;4964010;28;114871;-85
2023/10/29 07:37:15;;;;;;;;;;;13.70;60.80;;;;;;4948686;28;115837;-86
2023/10/29 07:39:42;;;;;;;;;;;13.80;60.20;;;;;;4948482;28;114342;-87
2023/10/29 07:42:10;;;;;;;;;;;13.80;60.40;;;;;;4948142;28;114697;-85
2023/10/29 07:44:37;;;;;;;;;;;13.90;59.90;;;;;;4998515;28;115300;-85
2023/10/29 07:47:08;;;;;;;;;;;14.00;60.00;;;;;;4963837;28;114606;-86
2023/10/29 07:49:37;;;;;;;;;;;14.10;59.60;;;;;;4950294;28;114256;-86
2023/10/29 07:52:05;;;;;;;;;;;14.20;59.70;;;;;;4964527;28;114364;-86
2023/10/29 07:54:33;;;;;;;;;;;14.20;58.60;;;;;;4979650;28;116096;-85
2023/10/29 07:57:00;;;;;;;;;;;14.20;58.90;;;;;;4963362;28;117995;-85
2023/10/29 07:59:27;;;;;;;;;;;14.20;59.20;;;;;;4980108;28;114559;-86
2023/10/29 08:01:54;;;;;;;;;;;14.20;58.50;;;;;;4966763;28;114084;-86
2023/10/29 08:04:21;;;;;;;;;;;14.20;59.00;;;;;;4984219;28;118288;-85
2023/10/29 08:06:50;;;;;;;;;;;14.20;59.20;;;;;;4964000;28;114919;-84
2023/10/29 08:09:18;;;;;;;;;;;14.20;58.70;;;;;;4949138;28;114351;-86
2023/10/29 08:11:45;;;;;;;;;;;14.30;58.60;;;;;;4949262;28;114330;-87
2023/10/29 08:14:12;;;;;;;;;;;14.30;58.10;;;;;;4963836;28;118486;-86
2023/10/29 08:16:41;;;;;;;;;;;14.30;58.60;;;;;;4964379;28;117484;-86
2023/10/29 08:19:08;;;;;;;;;;;14.30;58.40;;;;;;4949735;28;114125;-86
2023/10/29 08:21:35;;;;;;;;;;;14.30;58.30;;;;;;4997103;28;114585;-85
2023/10/29 08:24:02;;;;;;;;;;;14.30;58.70;;;;;;4979788;28;114933;-85
2023/10/29 08:26:32;;;;;;;;;;;14.40;58.80;;;;;;4963136;28;116997;-85
2023/10/29 08:28:59;;;;;;;;;;;14.50;58.50;;;;;;4980509;28;114491;-87
2023/10/29 08:31:26;;;;;;;;;;;14.60;58.40;;;;;;4948680;28;114809;-86
2023/10/29 08:33:54;;;;;;;;;;;14.70;58.00;;;;;;4963409;28;114510;-86
2023/10/29 08:36:21;;;;;;;;;;;14.70;57.60;;;;;;4946866;28;118391;-85
2023/10/29 08:38:49;;;;;;;;;;;14.60;57.30;;;;;;4964439;28;114408;-86
2023/10/29 08:41:16;;;;;;;;;;;14.60;58.10;;;;;;4980469;28;114544;-86
2023/10/29 08:43:44;;;;;;;;;;;14.60;58.30;;;;;;4961285;28;119237;-86
2023/10/29 08:46:11;;;;;;;;;;;14.80;57.90;;;;;;4978728;28;115172;-86
2023/10/29 08:48:39;;;;;;;;;;;14.70;57.70;;;;;;4995954;28;114086;-85
2023/10/29 08:51:06;;;;;;;;;;;14.80;57.30;;;;;;4980272;28;114304;-86
2023/10/29 08:53:33;;;;;;;;;;;14.80;57.50;;;;;;4979465;28;118100;-85
2023/10/29 08:56:02;;;;;;;;;;;14.80;56.60;;;;;;4963096;28;117177;-86
2023/10/29 08:58:29;;;;;;;;;;;14.80;57.30;;;;;;4963962;28;114298;-86
2023/10/29 09:00:57;;;;;;;;;;;14.90;57.70;;;;;;4948284;28;114292;-86
2023/10/29 09:03:25;;;;;;;;;;;15.00;57.20;;;;;;4996744;28;114936;-86
2023/10/29 09:05:58;;;;;;;;;;;15.10;56.90;;;;;;4996216;28;114728;-87
2023/10/29 09:08:25;;;;;;;;;;;15.10;56.80;;;;;;4963169;28;114352;-86
2023/10/29 09:10:52;;;;;;;;;;;15.20;57.00;;;;;;4980071;28;114420;-86
2023/10/29 09:13:22;;;;;;;;;;;15.30;57.20;;;;;;4945626;28;117918;-84
2023/10/29 09:15:50;;;;;;;;;;;15.40;56.10;;;;;;4947121;28;117104;-86
2023/10/29 09:18:17;;;;;;;;;;;15.40;56.70;;;;;;4979454;28;114554;-86
2023/10/29 09:20:46;;;;;;;;;;;15.50;57.10;;;;;;4962548;28;114726;-85
2023/10/29 09:23:14;;;;;;;;;;;15.60;57.10;;;;;;4947022;28;115349;-85
2023/10/29 09:25:45;;;;;;;;;;;15.70;56.80;;;;;;4995130;28;115025;-86
2023/10/29 09:28:13;;;;;;;;;;;15.80;57.00;;;;;;4962795;28;114359;-86
2023/10/29 09:30:40;;;;;;;;;;;15.90;56.90;;;;;;4979060;28;114525;-87
2023/10/29 09:33:08;;;;;;;;;;;15.90;56.30;;;;;;4946573;28;115409;-86
2023/10/29 09:35:37;;;;;;;;;;;15.90;55.80;;;;;;4961587;28;115652;-86
2023/10/29 09:38:04;;;;;;;;;;;15.90;56.10;;;;;;4994889;28;114120;-87
2023/10/29 09:40:32;;;;;;;;;;;16.00;55.80;;;;;;4995372;28;114845;-86
2023/10/29 09:43:02;;;;;;;;;;;16.00;55.10;;;;;;4962967;28;115497;-86
2023/10/29 09:45:29;;;;;;;;;;;16.00;55.70;;;;;;4998702;28;114306;-87
2023/10/29 09:47:59;;;;;;;;;;;16.10;55.50;;;;;;4979546;28;115022;-86
2023/10/29 09:50:27;;;;;;;;;;;16.20;55.10;;;;;;4977968;28;114417;-86
2023/10/29 09:52:54;;;;;;;;;;;16.20;54.90;;;;;;4978125;28;114804;-87
2023/10/29 09:55:21;;;;;;;;;;;16.20;55.20;;;;;;4978196;28;117431;-87
2023/10/29 09:57:49;;;;;;;;;;;16.30;55.40;;;;;;4947206;28;114575;-87
2023/10/29 10:00:16;;;;;;;;;;;16.30;55.50;;;;;;4978634;28;114415;-86
2023/10/29 10:02:50;;;;;;;;;;;16.40;55.40;;;;;;4977384;28;114929;-86
2023/10/29 10:05:21;;;;;;;;;;;16.40;54.80;;;;;;4961166;28;116823;-86
2023/10/29 10:07:48;;;;;;;;;;;16.40;55.10;;;;;;4945837;28;114211;-86
2023/10/29 10:10:15;;;;;;;;;;;16.40;54.20;;;;;;4962490;28;114300;-87
2023/10/29 10:12:49;;;;;;;;;;;16.50;53.30;;;;;;4964952;28;117876;-86
2023/10/29 10:15:16;;;;;;;;;;;16.40;53.80;;;;;;4964724;28;117728;-86
2023/10/29 10:17:59;;;;;;;;;;;16.30;53.50;;;;;;4998446;28;114244;-85
2023/10/29 10:20:42;;;;;;;;;;;16.50;53.70;;;;;;4977664;28;114612;-85
2023/10/29 10:23:11;;;;;;;;;;;16.40;53.80;;;;;;4997477;28;115425;-85
2023/10/29 10:25:38;;;;;;;;;;;16.50;53.40;;;;;;4964464;28;117395;-85
2023/10/29 10:28:08;;;;;;;;;;;16.60;54.10;;;;;;4948458;28;114331;-85
2023/10/29 10:30:39;;;;;;;;;;;16.60;53.00;;;;;;4964919;28;114335;-86
2023/10/29 10:33:10;;;;;;;;;;;16.60;53.30;;;;;;4947249;28;117764;-86
2023/10/29 10:35:38;;;;;;;;;;;16.70;52.70;;;;;;4964252;28;117938;-85
2023/10/29 10:38:05;;;;;;;;;;;16.60;52.10;;;;;;4982383;28;114456;-85
2023/10/29 10:40:39;;;;;;;;;;;16.60;53.20;;;;;;4965263;28;114248;-85
2023/10/29 10:43:06;;;;;;;;;;;16.60;51.80;;;;;;4963762;28;119462;-85
2023/10/29 10:45:33;;;;;;;;;;;16.60;52.40;;;;;;4981005;28;114972;-86
2023/10/29 10:48:04;;;;;;;;;;;16.50;52.70;;;;;;4981523;28;114146;-85
2023/10/29 10:50:32;;;;;;;;;;;16.60;53.10;;;;;;4981833;28;114606;-86
2023/10/29 10:53:00;;;;;;;;;;;16.70;52.20;;;;;;4963353;28;118958;-84
2023/10/29 10:55:27;;;;;;;;;;;16.70;51.80;;;;;;4947309;28;118026;-85
2023/10/29 10:58:15;;;;;;;;;;;16.70;52.20;;;;;;4962515;28;114373;-86
2023/10/29 11:00:42;;;;;;;;;;;16.70;50.90;;;;;;4997772;28;114313;-86
2023/10/29 11:03:09;;;;;;;;;;;16.70;52.00;;;;;;4980551;28;117771;-86
2023/10/29 11:05:57;;;;;;;;;;;16.70;52.30;;;;;;4959455;28;117846;-85
2023/10/29 11:08:24;;;;;;;;;;;16.80;52.50;;;;;;4982546;28;114394;-85
2023/10/29 11:10:53;;;;;;;;;;;16.80;51.90;;;;;;4981636;28;114441;-85
2023/10/29 11:13:20;;;;;;;;;;;16.90;50.90;;;;;;4966628;28;118248;-87
2023/10/29 11:15:48;;;;;;;;;;;17.00;51.70;;;;;;4947633;28;118036;-85
2023/10/29 11:18:25;;;;;;;;;;;17.00;51.90;;;;;;4980851;28;114087;-85
2023/10/29 11:20:53;;;;;;;;;;;17.10;51.50;;;;;;4980451;28;114309;-86
2023/10/29 11:23:38;;;;;;;;;;;17.10;51.40;;;;;;4979149;28;118379;-86
2023/10/29 11:26:22;;;;;;;;;;;17.10;50.60;;;;;;4979775;28;118208;-86
2023/10/29 11:28:51;;;;;;;;;;;17.10;50.50;;;;;;4965763;28;114480;-85
2023/10/29 11:31:20;;;;;;;;;;;17.10;51.20;;;;;;4980997;28;114207;-86
2023/10/29 11:33:48;;;;;;;;;;;17.20;51.20;;;;;;4980517;28;118549;-85
2023/10/29 11:36:34;;;;;;;;;;;17.20;50.10;;;;;;4964168;28;114867;-84
2023/10/29 11:39:22;;;;;;;;;;;17.20;50.50;;;;;;4964574;28;114085;-86
2023/10/29 11:41:51;;;;;;;;;;;17.20;49.60;;;;;;4948678;28;114452;-86
2023/10/29 11:44:22;;;;;;;;;;;17.20;50.60;;;;;;4962888;28;115137;-86
2023/10/29 11:46:55;;;;;;;;;;;17.20;51.00;;;;;;4963884;28;118096;-86
2023/10/29 11:49:23;;;;;;;;;;;17.30;50.80;;;;;;4949459;28;114484;-85
2023/10/29 11:51:54;;;;;;;;;;;17.20;50.90;;;;;;4964856;28;114328;-85
2023/10/29 11:54:22;;;;;;;;;;;17.30;51.00;;;;;;4964053;28;117731;-86
2023/10/29 11:56:49;;;;;;;;;;;17.30;51.20;;;;;;4964001;28;117649;-85
2023/10/29 11:59:16;;;;;;;;;;;17.30;51.40;;;;;;4964185;28;114205;-86
2023/10/29 12:01:44;;;;;;;;;;;17.30;50.80;;;;;;4981083;28;114254;-85
2023/10/29 12:04:12;;;;;;;;;;;17.30;50.80;;;;;;4996339;28;115381;-86
2023/10/29 12:06:43;;;;;;;;;;;17.30;51.10;;;;;;4980090;28;115004;-85
2023/10/29 12:09:13;;;;;;;;;;;17.40;50.50;;;;;;4962593;28;114436;-85
2023/10/29 12:11:41;;;;;;;;;;;17.30;50.70;;;;;;4980646;28;114047;-86
2023/10/29 12:14:08;;;;;;;;;;;17.30;50.90;;;;;;4962916;28;119926;-86
2023/10/29 12:16:35;;;;;;;;;;;17.20;50.60;;;;;;4979085;28;118029;-85
2023/10/29 12:19:03;;;;;;;;;;;17.20;50.40;;;;;;4980542;28;114298;-86
2023/10/29 12:21:30;;;;;;;;;;;17.10;50.90;;;;;;4963202;28;114418;-84
2023/10/29 12:23:57;;;;;;;;;;;17.10;50.70;;;;;;4946376;28;117854;-85
2023/10/29 12:26:30;;;;;;;;;;;17.00;50.50;;;;;;4979697;28;114607;-85
2023/10/29 12:28:57;;;;;;;;;;;16.90;51.00;;;;;;4946839;28;114324;-86
2023/10/29 12:31:25;;;;;;;;;;;16.80;50.90;;;;;;4965603;28;114429;-85
2023/10/29 12:33:58;;;;;;;;;;;16.80;51.00;;;;;;4962227;28;117474;-86
2023/10/29 12:36:26;;;;;;;;;;;16.80;50.90;;;;;;4978833;28;115358;-84
2023/10/29 12:38:53;;;;;;;;;;;16.70;50.00;;;;;;4963323;28;114215;-86
2023/10/29 12:41:21;;;;;;;;;;;16.60;49.80;;;;;;4962786;28;114368;-86
2023/10/29 12:43:51;;;;;;;;;;;16.60;50.10;;;;;;4962334;28;114999;-86
2023/10/29 12:46:19;;;;;;;;;;;16.50;50.70;;;;;;4995010;28;114554;-85
2023/10/29 12:48:56;;;;;;;;;;;16.50;51.10;;;;;;4948519;28;114125;-85
2023/10/29 12:51:24;;;;;;;;;;;16.50;51.00;;;;;;4948641;28;114177;-85
2023/10/29 12:53:54;;;;;;;;;;;16.50;51.20;;;;;;4946141;28;114878;-86
2023/10/29 12:56:21;;;;;;;;;;;16.50;51.50;;;;;;4977817;28;116924;-86
2023/10/29 12:58:48;;;;;;;;;;;16.50;51.30;;;;;;4995151;28;114373;-85
2023/10/29 13:01:17;;;;;;;;;;;16.60;51.50;;;;;;4948102;28;114371;-86
2023/10/29 13:03:54;;;;;;;;;;;16.60;51.60;;;;;;4946641;28;116127;-85
2023/10/29 13:06:22;;;;;;;;;;;16.70;51.60;;;;;;4947464;28;114699;-85
2023/10/29 13:08:49;;;;;;;;;;;16.80;51.60;;;;;;4949991;28;114375;-85
2023/10/29 13:11:16;;;;;;;;;;;16.80;51.50;;;;;;4953474;28;114038;-85
2023/10/29 13:13:43;;;;;;;;;;;16.90;51.40;;;;;;4950388;28;115137;-85
2023/10/29 13:16:21;;;;;;;;;;;16.90;50.60;;;;;;4948899;28;115290;-85
2023/10/29 13:18:50;;;;;;;;;;;16.90;50.10;;;;;;4948203;28;114353;-85
2023/10/29 13:21:18;;;;;;;;;;;16.80;50.10;;;;;;4963603;28;114113;-85
2023/10/29 13:23:46;;;;;;;;;;;16.80;50.20;;;;;;4947862;28;117358;-87
2023/10/29 13:26:22;;;;;;;;;;;16.80;50.40;;;;;;4993743;28;118102;-86
2023/10/29 13:28:49;;;;;;;;;;;16.80;50.40;;;;;;4948796;28;114252;-86
2023/10/29 13:31:16;;;;;;;;;;;16.70;50.50;;;;;;4947955;28;113958;-86
2023/10/29 13:33:45;;;;;;;;;;;16.70;50.70;;;;;;4978161;28;115085;-86
2023/10/29 13:36:12;;;;;;;;;;;16.70;50.60;;;;;;4947109;28;114821;-87
2023/10/29 13:38:40;;;;;;;;;;;16.70;50.50;;;;;;4947402;28;114293;-86
2023/10/29 13:41:12;;;;;;;;;;;16.70;50.50;;;;;;4962361;28;114570;-87
2023/10/29 13:43:39;;;;;;;;;;;16.70;50.10;;;;;;4961803;28;115861;-85
2023/10/29 13:46:06;;;;;;;;;;;16.60;50.40;;;;;;4961478;28;114794;-85
2023/10/29 13:48:33;;;;;;;;;;;16.60;50.60;;;;;;4962315;28;114241;-84
2023/10/29 13:51:04;;;;;;;;;;;16.60;50.60;;;;;;4979126;28;114233;-85
2023/10/29 13:53:32;;;;;;;;;;;16.50;50.60;;;;;;4947005;28;115132;-84
2023/10/29 13:56:08;;;;;;;;;;;16.50;50.80;;;;;;4945748;28;117477;-85
2023/10/29 13:58:36;;;;;;;;;;;16.40;50.20;;;;;;4979582;28;114151;-86
2023/10/29 14:01:03;;;;;;;;;;;16.30;50.30;;;;;;4979046;28;114395;-86
2023/10/29 14:03:30;;;;;;;;;;;16.20;49.90;;;;;;4946155;28;115206;-85
2023/10/29 14:05:58;;;;;;;;;;;16.20;50.40;;;;;;4946866;28;114141;-85
2023/10/29 14:08:25;;;;;;;;;;;16.10;50.70;;;;;;4978722;28;114131;-86
2023/10/29 14:10:52;;;;;;;;;;;16.10;50.70;;;;;;4946926;28;114438;-84